Terminal Aerodrome Forecast
Issued by NWS Albany, NY

Home | Current Version | Previous Version | Text Only | Print | Product List | Glossary On
Versions: 1 2 3 4 5 6 7 8 9 10 11 12 13 14
000
FTUS41 KALY 252326
TAFPOU
TAF
KPOU 252326Z 2600/2624 01010KT P6SM SKC
     FM260200 00000KT P6SM SCT200
     FM261400 33006KT P6SM SCT070=

USA.gov is the U.S. government's official web portal to all federal, state and local government web resources and services.